createdAt,value
2018-10-07T00:00:02.632Z,15.67
2018-10-07T00:02:37.609Z,15.68
2018-10-07T00:05:12.510Z,15.58
2018-10-07T00:07:46.991Z,15.58
2018-10-07T00:10:22.190Z,15.55
2018-10-07T00:12:56.681Z,15.54
2018-10-07T00:15:31.028Z,15.52
2018-10-07T00:18:05.800Z,15.56
2018-10-07T00:20:40.692Z,15.49
2018-10-07T00:23:15.475Z,15.31
2018-10-07T00:25:50.363Z,15.34
2018-10-07T00:28:25.099Z,15.35
2018-10-07T00:31:00.400Z,15.37
2018-10-07T00:33:34.848Z,15.38
2018-10-07T00:36:09.339Z,15.40
2018-10-07T00:38:43.812Z,15.42
2018-10-07T00:41:18.177Z,15.39
2018-10-07T00:43:52.681Z,15.37
2018-10-07T00:46:27.368Z,15.41
2018-10-07T00:49:01.876Z,15.36
2018-10-07T00:51:36.615Z,15.32
2018-10-07T00:54:11.250Z,15.29
2018-10-07T00:56:46.852Z,15.26
2018-10-07T00:59:21.689Z,15.27
2018-10-07T01:01:56.479Z,15.28
2018-10-07T01:04:31.916Z,15.27
2018-10-07T01:07:06.540Z,15.23
2018-10-07T01:09:40.973Z,15.21
2018-10-07T01:12:16.259Z,15.23
2018-10-07T01:14:50.811Z,15.21
2018-10-07T01:17:25.616Z,15.20
2018-10-07T01:20:00.471Z,15.19
2018-10-07T01:22:35.447Z,15.17
2018-10-07T01:25:09.853Z,15.12
2018-10-07T01:27:44.360Z,15.07
2018-10-07T01:30:22.316Z,15.09
2018-10-07T01:32:57.239Z,15.09
2018-10-07T01:35:32.051Z,15.06
2018-10-07T01:38:06.603Z,15.06
2018-10-07T01:40:41.195Z,15.08
2018-10-07T01:43:15.555Z,15.06
2018-10-07T01:45:50.255Z,15.02
2018-10-07T01:48:24.937Z,14.95
2018-10-07T01:51:00.228Z,14.95
2018-10-07T01:53:34.692Z,14.92
2018-10-07T01:56:09.250Z,14.87
2018-10-07T01:58:44.391Z,14.95
2018-10-07T02:01:18.743Z,14.94
2018-10-07T02:03:53.815Z,14.90
2018-10-07T02:06:28.508Z,14.90
2018-10-07T02:09:03.105Z,14.90
2018-10-07T02:11:38.063Z,14.99
2018-10-07T02:14:13.344Z,14.95
2018-10-07T02:16:48.139Z,14.90
2018-10-07T02:19:22.456Z,14.83
2018-10-07T02:21:57.141Z,14.81
2018-10-07T02:24:31.911Z,14.81
2018-10-07T02:27:06.467Z,14.77
2018-10-07T02:29:41.195Z,14.77
2018-10-07T02:32:16.148Z,14.75
2018-10-07T02:34:51.039Z,14.71
2018-10-07T02:37:25.505Z,14.68
2018-10-07T02:40:00.127Z,14.67
2018-10-07T02:42:34.735Z,14.70
2018-10-07T02:45:09.596Z,14.71
2018-10-07T02:47:45.348Z,14.76
2018-10-07T02:50:21.823Z,14.76
2018-10-07T02:52:57.056Z,14.73
2018-10-07T02:55:32.572Z,14.67
2018-10-07T02:58:07.232Z,14.65
2018-10-07T03:00:42.301Z,14.65
2018-10-07T03:03:17.511Z,14.64
2018-10-07T03:05:52.314Z,14.60
2018-10-07T03:08:27.055Z,14.60
2018-10-07T03:11:01.439Z,14.62
2018-10-07T03:13:35.960Z,14.62
2018-10-07T03:16:10.663Z,14.64
2018-10-07T03:18:45.371Z,14.57
2018-10-07T03:21:19.828Z,14.58
2018-10-07T03:23:54.700Z,14.54
2018-10-07T03:26:29.727Z,14.57
2018-10-07T03:29:04.800Z,14.54
2018-10-07T03:31:39.266Z,14.51
2018-10-07T03:34:14.381Z,14.47
2018-10-07T03:36:48.959Z,14.50
2018-10-07T03:39:23.458Z,14.48
2018-10-07T03:41:57.928Z,14.47
2018-10-07T03:44:32.208Z,14.46
2018-10-07T03:47:07.241Z,14.50
2018-10-07T03:49:41.980Z,14.48
2018-10-07T03:52:16.669Z,14.50
2018-10-07T03:54:51.459Z,14.47
2018-10-07T03:57:26.068Z,14.57
2018-10-07T04:00:00.860Z,14.49
2018-10-07T04:02:35.572Z,14.43
2018-10-07T04:05:10.412Z,14.39
2018-10-07T04:07:45.473Z,14.39
2018-10-07T04:10:20.536Z,14.37
2018-10-07T04:12:55.036Z,14.35
2018-10-07T04:15:29.628Z,14.37
2018-10-07T04:18:04.103Z,14.38
2018-10-07T04:20:38.976Z,14.33
2018-10-07T04:23:13.636Z,14.32
2018-10-07T04:25:48.383Z,14.36
2018-10-07T04:28:23.075Z,14.34
2018-10-07T04:30:57.984Z,14.37
2018-10-07T04:33:32.438Z,14.35
2018-10-07T04:36:08.764Z,14.37
2018-10-07T04:38:43.298Z,14.53
2018-10-07T04:41:17.776Z,14.47
2018-10-07T04:43:52.501Z,14.45
2018-10-07T04:46:26.832Z,14.44
2018-10-07T04:49:04.674Z,14.53
2018-10-07T04:51:39.472Z,14.50
2018-10-07T04:54:14.452Z,14.41
2018-10-07T04:56:48.957Z,14.42
2018-10-07T04:59:23.578Z,14.38
2018-10-07T05:02:00.680Z,14.36
2018-10-07T05:04:38.219Z,14.40
2018-10-07T05:07:16.471Z,14.38
2018-10-07T05:10:23.066Z,14.38
2018-10-07T05:13:00.820Z,14.36
2018-10-07T05:15:35.520Z,14.29
2018-10-07T05:18:10.220Z,14.25
2018-10-07T05:20:44.951Z,14.26
2018-10-07T05:23:20.011Z,14.27
2018-10-07T05:25:54.832Z,14.27
2018-10-07T05:28:29.864Z,14.36
2018-10-07T05:31:04.779Z,14.35
2018-10-07T05:33:39.323Z,14.30
2018-10-07T05:36:14.171Z,14.31
2018-10-07T05:38:48.844Z,14.29
2018-10-07T05:41:23.976Z,14.29
2018-10-07T05:43:58.516Z,14.32
2018-10-07T05:46:33.276Z,14.35
2018-10-07T05:49:07.795Z,14.35
2018-10-07T05:51:42.207Z,14.31
2018-10-07T05:54:16.672Z,14.30
2018-10-07T05:56:51.428Z,14.31
2018-10-07T05:59:26.063Z,14.27
2018-10-07T06:02:03.976Z,14.28
2018-10-07T06:04:42.201Z,14.31
2018-10-07T06:07:19.373Z,14.40
2018-10-07T06:09:54.387Z,14.41
2018-10-07T06:12:29.166Z,14.44
2018-10-07T06:15:27.865Z,14.47
2018-10-07T06:18:02.537Z,14.50
2018-10-07T06:20:37.444Z,14.54
2018-10-07T06:23:12.560Z,14.59
2018-10-07T06:25:46.824Z,14.63
2018-10-07T06:28:22.044Z,14.70
2018-10-07T06:30:56.847Z,14.71
2018-10-07T06:33:31.173Z,14.77
2018-10-07T06:36:06.235Z,14.82
2018-10-07T06:38:43.020Z,14.87
2018-10-07T06:41:18.313Z,14.94
2018-10-07T06:43:53.452Z,15.01
2018-10-07T06:46:28.650Z,15.06
2018-10-07T06:49:03.384Z,15.07
2018-10-07T06:51:38.184Z,15.10
2018-10-07T06:54:14.101Z,15.14
2018-10-07T06:56:49.435Z,15.20
2018-10-07T06:59:23.977Z,15.21
2018-10-07T07:01:59.084Z,15.24
2018-10-07T07:04:33.444Z,15.23
2018-10-07T07:07:08.868Z,15.28
2018-10-07T07:09:43.860Z,15.30
2018-10-07T07:12:18.557Z,15.41
2018-10-07T07:14:53.599Z,15.47
2018-10-07T07:17:28.177Z,15.55
2018-10-07T07:20:02.592Z,15.59
2018-10-07T07:22:37.177Z,15.62
2018-10-07T07:25:11.615Z,15.67
2018-10-07T07:27:46.296Z,15.72
2018-10-07T07:30:21.486Z,15.76
2018-10-07T07:35:33.242Z,15.87
2018-10-07T07:38:07.939Z,15.93
2018-10-07T07:40:42.464Z,15.98
2018-10-07T07:43:16.764Z,16.06
2018-10-07T07:45:51.584Z,16.18
2018-10-07T07:48:26.035Z,16.22
2018-10-07T07:51:00.439Z,16.33
2018-10-07T07:53:37.737Z,16.47
2018-10-07T07:56:12.634Z,16.55
2018-10-07T07:58:48.973Z,16.69
2018-10-07T08:01:23.719Z,16.79
2018-10-07T08:03:58.358Z,16.91
2018-10-07T08:06:32.661Z,17.03
2018-10-07T08:09:08.348Z,17.17
2018-10-07T08:11:42.867Z,17.35
2018-10-07T08:14:17.502Z,17.49
2018-10-07T08:16:51.940Z,17.65
2018-10-07T08:19:26.373Z,17.86
2018-10-07T08:22:01.771Z,18.06
2018-10-07T08:24:36.708Z,18.25
2018-10-07T08:27:11.405Z,18.43
2018-10-07T08:29:46.482Z,18.65
2018-10-07T08:32:21.119Z,18.80
2018-10-07T08:35:02.321Z,18.97
2018-10-07T08:37:37.269Z,19.13
2018-10-07T08:40:11.664Z,19.31
2018-10-07T08:42:46.258Z,19.42
2018-10-07T08:45:21.287Z,19.54
2018-10-07T08:47:55.911Z,19.60
2018-10-07T08:50:33.166Z,19.70
2018-10-07T08:53:07.720Z,19.87
2018-10-07T08:55:42.836Z,19.85
2018-10-07T08:58:17.245Z,19.97
2018-10-07T09:00:51.679Z,20.08
2018-10-07T09:03:26.135Z,20.12
2018-10-07T09:06:00.423Z,20.09
2018-10-07T09:08:34.712Z,20.08
2018-10-07T09:11:09.505Z,20.15
2018-10-07T09:13:44.116Z,20.23
2018-10-07T09:16:18.563Z,20.32
2018-10-07T09:18:53.562Z,20.44
2018-10-07T09:21:28.261Z,20.47
2018-10-07T09:24:02.720Z,20.49
2018-10-07T09:26:37.417Z,20.58
2018-10-07T09:29:12.030Z,20.66
2018-10-07T09:31:54.164Z,20.73
2018-10-07T09:34:33.149Z,20.81
2018-10-07T09:37:07.760Z,20.87
2018-10-07T09:39:42.315Z,21.03
2018-10-07T09:42:17.153Z,21.17
2018-10-07T09:44:52.524Z,21.14
2018-10-07T09:47:27.206Z,21.22
2018-10-07T09:50:03.892Z,21.09
2018-10-07T09:52:38.603Z,21.08
2018-10-07T09:55:13.581Z,20.96
2018-10-07T09:57:48.075Z,20.83
2018-10-07T10:00:28.191Z,20.80
2018-10-07T10:03:02.479Z,20.76
2018-10-07T10:05:37.427Z,20.81
2018-10-07T10:08:12.111Z,20.93
2018-10-07T10:10:49.296Z,21.00
2018-10-07T10:13:29.948Z,21.07
2018-10-07T10:16:04.987Z,21.13
2018-10-07T10:18:49.855Z,21.02
2018-10-07T10:22:35.316Z,21.00
2018-10-07T10:25:17.516Z,20.71
2018-10-07T10:28:05.864Z,20.75
2018-10-07T10:30:49.596Z,20.17
2018-10-07T10:33:28.360Z,20.38
2018-10-07T10:36:19.219Z,20.39
2018-10-07T10:39:08.148Z,20.52
2018-10-07T10:41:48.564Z,20.65
2018-10-07T10:44:41.698Z,20.77
2018-10-07T10:47:25.444Z,21.08
2018-10-07T10:50:08.423Z,21.27
2018-10-07T10:52:52.304Z,21.41
2018-10-07T10:55:36.619Z,21.57
2018-10-07T10:58:21.815Z,21.64
2018-10-07T11:01:09.255Z,21.71
2018-10-07T11:03:51.547Z,21.81
2018-10-07T11:06:34.700Z,21.86
2018-10-07T11:09:13.384Z,21.85
2018-10-07T11:12:00.150Z,21.83
2018-10-07T11:14:50.535Z,21.62
2018-10-07T11:17:31.503Z,21.42
2018-10-07T11:20:18.996Z,21.27
2018-10-07T11:23:13.231Z,21.26
2018-10-07T11:25:59.047Z,21.23
2018-10-07T11:28:59.211Z,21.18
2018-10-07T11:31:42.767Z,21.11
2018-10-07T11:36:33.484Z,21.05
2018-10-07T11:39:22.297Z,20.93
2018-10-07T11:42:07.308Z,20.95
2018-10-07T11:46:52.208Z,20.99
2018-10-07T11:49:31.931Z,20.93
2018-10-07T11:52:18.434Z,20.99
2018-10-07T11:54:57.144Z,21.02
2018-10-07T11:57:32.012Z,21.19
2018-10-07T12:00:06.571Z,21.36
2018-10-07T12:02:41.873Z,21.51
2018-10-07T12:05:16.464Z,21.57
2018-10-07T12:07:51.215Z,21.54
2018-10-07T12:10:25.460Z,21.58
2018-10-07T12:13:00.173Z,21.62
2018-10-07T12:15:35.974Z,21.66
2018-10-07T12:18:10.463Z,21.64
2018-10-07T12:20:45.314Z,21.57
2018-10-07T12:23:20.085Z,21.54
2018-10-07T12:25:54.403Z,21.45
2018-10-07T12:28:28.764Z,21.44
2018-10-07T12:31:03.742Z,21.44
2018-10-07T12:33:38.160Z,21.34
2018-10-07T12:36:14.521Z,21.29
2018-10-07T12:39:00.929Z,21.22
2018-10-07T12:41:36.787Z,21.18
2018-10-07T12:44:11.765Z,21.17
2018-10-07T12:46:46.392Z,21.11
2018-10-07T12:52:21.329Z,20.91
2018-10-07T12:54:56.949Z,20.83
2018-10-07T12:57:31.688Z,20.77
2018-10-07T13:00:06.962Z,20.73
2018-10-07T13:02:42.497Z,20.72
2018-10-07T13:05:16.923Z,20.69
2018-10-07T13:07:51.646Z,20.67
2018-10-07T13:10:26.462Z,20.66
2018-10-07T13:13:01.122Z,20.64
2018-10-07T13:15:35.639Z,20.50
2018-10-07T13:18:10.048Z,20.47
2018-10-07T13:20:54.891Z,20.48
2018-10-07T13:23:33.098Z,20.35
2018-10-07T13:26:08.539Z,20.37
2018-10-07T13:28:53.468Z,20.31
2018-10-07T13:31:29.855Z,20.33
2018-10-07T13:34:04.499Z,20.32
2018-10-07T13:36:39.622Z,20.32
2018-10-07T13:39:14.996Z,20.37
2018-10-07T13:41:49.820Z,20.33
2018-10-07T13:44:24.289Z,20.32
2018-10-07T13:46:58.800Z,20.32
2018-10-07T13:49:33.383Z,20.34
2018-10-07T13:52:07.696Z,20.30
2018-10-07T13:54:42.205Z,20.28
2018-10-07T13:57:18.884Z,20.31
2018-10-07T13:59:53.643Z,20.37
2018-10-07T14:02:28.169Z,20.41
2018-10-07T14:05:03.043Z,20.47
2018-10-07T14:07:37.447Z,20.47
2018-10-07T14:10:11.859Z,20.45
2018-10-07T14:12:46.630Z,20.37
2018-10-07T14:15:21.450Z,20.25
2018-10-07T14:17:56.137Z,20.15
2018-10-07T14:20:40.490Z,20.02
2018-10-07T14:23:15.097Z,19.81
2018-10-07T14:25:49.528Z,19.69
2018-10-07T14:28:24.119Z,19.65
2018-10-07T14:30:58.657Z,19.53
2018-10-07T14:33:33.176Z,19.47
2018-10-07T14:36:08.034Z,19.37
2018-10-07T14:38:43.011Z,19.30
2018-10-07T14:41:29.792Z,19.22
2018-10-07T14:44:04.852Z,19.12
2018-10-07T14:46:39.752Z,19.05
2018-10-07T14:49:15.410Z,19.05
2018-10-07T14:51:55.926Z,18.96
2018-10-07T14:54:30.504Z,18.94
2018-10-07T14:57:08.407Z,18.84
2018-10-07T14:59:54.435Z,18.75
2018-10-07T15:02:30.216Z,18.66
2018-10-07T15:05:04.943Z,18.62
2018-10-07T15:07:39.971Z,18.57
2018-10-07T15:10:14.360Z,18.61
2018-10-07T15:12:48.775Z,18.61
2018-10-07T15:15:25.380Z,18.64
2018-10-07T15:18:00.187Z,18.61
2018-10-07T15:20:34.527Z,18.59
2018-10-07T15:23:09.153Z,18.60
2018-10-07T15:25:44.355Z,18.62
2018-10-07T15:28:19.675Z,18.62
2018-10-07T15:30:54.188Z,18.62
2018-10-07T15:33:28.846Z,18.61
2018-10-07T15:36:03.813Z,18.62
2018-10-07T15:38:38.341Z,18.61
2018-10-07T15:41:13.252Z,18.60
2018-10-07T15:43:47.776Z,18.58
2018-10-07T15:46:22.336Z,18.58
2018-10-07T15:48:56.950Z,18.47
2018-10-07T15:51:31.888Z,18.43
2018-10-07T15:54:06.999Z,18.38
2018-10-07T15:56:42.277Z,18.35
2018-10-07T15:59:17.092Z,18.32
2018-10-07T16:01:51.897Z,18.27
2018-10-07T16:04:26.575Z,18.21
2018-10-07T16:07:01.028Z,18.18
2018-10-07T16:09:35.648Z,18.14
2018-10-07T16:12:09.997Z,18.07
2018-10-07T16:14:44.546Z,18.03
2018-10-07T16:17:23.355Z,17.96
2018-10-07T16:19:57.968Z,17.91
2018-10-07T16:22:32.847Z,17.85
2018-10-07T16:25:07.164Z,17.77
2018-10-07T16:27:41.797Z,17.71
2018-10-07T16:30:16.228Z,17.63
2018-10-07T16:32:50.700Z,17.56
2018-10-07T16:35:26.432Z,17.47
2018-10-07T16:38:02.402Z,17.43
2018-10-07T16:40:37.453Z,17.37
2018-10-07T16:43:13.068Z,17.28
2018-10-07T16:45:47.574Z,17.18
2018-10-07T16:48:21.953Z,17.13
2018-10-07T16:50:56.462Z,17.08
2018-10-07T16:53:31.109Z,17.01
2018-10-07T16:56:05.995Z,16.95
2018-10-07T16:58:40.299Z,16.88
2018-10-07T17:01:21.060Z,16.78
2018-10-07T17:03:59.039Z,16.70
2018-10-07T17:06:33.774Z,16.57
2018-10-07T17:09:08.955Z,16.49
2018-10-07T17:11:43.368Z,16.41
2018-10-07T17:14:20.041Z,16.33
2018-10-07T17:16:54.580Z,16.23
2018-10-07T17:19:29.801Z,16.14
2018-10-07T17:22:04.570Z,16.03
2018-10-07T17:24:38.860Z,15.98
2018-10-07T17:27:14.613Z,15.90
2018-10-07T17:29:49.628Z,15.81
2018-10-07T17:32:24.040Z,15.78
2018-10-07T17:34:58.580Z,15.70
2018-10-07T17:37:33.235Z,15.62
2018-10-07T17:40:08.080Z,15.56
2018-10-07T17:42:52.339Z,15.52
2018-10-07T17:45:26.828Z,15.41
2018-10-07T17:48:01.738Z,15.36
2018-10-07T17:50:41.891Z,15.25
2018-10-07T17:53:16.787Z,15.19
2018-10-07T17:55:54.503Z,15.18
2018-10-07T17:58:28.998Z,15.12
2018-10-07T18:01:03.456Z,15.04
2018-10-07T18:03:38.074Z,14.97
2018-10-07T18:06:12.379Z,14.92
2018-10-07T18:08:47.163Z,14.88
2018-10-07T18:11:21.792Z,14.85
2018-10-07T18:13:56.301Z,14.80
2018-10-07T18:16:30.604Z,14.75
2018-10-07T18:19:05.196Z,14.70
2018-10-07T18:21:39.699Z,14.66
2018-10-07T18:24:15.032Z,14.57
2018-10-07T18:26:49.607Z,14.53
2018-10-07T18:29:23.983Z,14.49
2018-10-07T18:31:58.300Z,14.50
2018-10-07T18:34:32.966Z,14.48
2018-10-07T18:37:08.156Z,14.42
2018-10-07T18:39:43.123Z,14.35
2018-10-07T18:42:17.971Z,14.32
2018-10-07T18:44:52.384Z,14.30
2018-10-07T18:47:26.663Z,14.28
2018-10-07T18:50:01.177Z,14.26
2018-10-07T18:52:36.004Z,14.25
2018-10-07T18:55:10.847Z,14.21
2018-10-07T18:57:45.954Z,14.14
2018-10-07T19:00:20.298Z,14.07
2018-10-07T19:02:56.399Z,14.00
2018-10-07T19:05:30.965Z,13.97
2018-10-07T19:08:05.459Z,14.00
2018-10-07T19:10:40.169Z,13.96
2018-10-07T19:13:14.700Z,13.91
2018-10-07T19:15:49.104Z,13.89
2018-10-07T19:18:23.425Z,13.83
2018-10-07T19:20:57.820Z,13.80
2018-10-07T19:23:32.412Z,13.76
2018-10-07T19:26:13.232Z,13.85
2018-10-07T19:29:01.729Z,13.79
2018-10-07T19:31:36.512Z,13.77
2018-10-07T19:34:11.056Z,13.83
2018-10-07T19:36:47.887Z,13.81
2018-10-07T19:39:22.832Z,13.79
2018-10-07T19:41:57.160Z,13.73
2018-10-07T19:44:32.016Z,13.68
2018-10-07T19:47:06.573Z,13.67
2018-10-07T19:49:41.160Z,13.60
2018-10-07T19:52:15.978Z,13.58
2018-10-07T19:54:50.560Z,13.58
2018-10-07T19:57:25.228Z,13.57
2018-10-07T19:59:59.712Z,13.58
2018-10-07T20:02:33.968Z,13.57
2018-10-07T20:05:08.411Z,13.45
2018-10-07T20:07:44.137Z,13.36
2018-10-07T20:10:18.899Z,13.27
2018-10-07T20:12:53.461Z,13.22
2018-10-07T20:15:28.256Z,13.19
2018-10-07T20:18:03.675Z,13.19
2018-10-07T20:20:38.420Z,13.18
2018-10-07T20:23:16.571Z,13.12
2018-10-07T20:25:51.272Z,13.07
2018-10-07T20:28:26.002Z,12.96
2018-10-07T20:31:00.751Z,12.93
2018-10-07T20:33:36.406Z,13.01
2018-10-07T20:36:10.855Z,12.90
2018-10-07T20:38:47.515Z,12.79
2018-10-07T20:41:22.119Z,12.70
2018-10-07T20:43:56.484Z,12.64
2018-10-07T20:46:30.871Z,12.59
2018-10-07T20:49:06.276Z,12.55
2018-10-07T20:51:40.932Z,12.55
2018-10-07T20:54:15.612Z,12.52
2018-10-07T20:56:50.311Z,12.49
2018-10-07T20:59:24.798Z,12.44
2018-10-07T21:01:59.265Z,12.39
2018-10-07T21:04:33.793Z,12.38
2018-10-07T21:07:08.475Z,12.34
2018-10-07T21:09:43.016Z,12.34
2018-10-07T21:12:17.416Z,12.41
2018-10-07T21:14:51.687Z,12.41
2018-10-07T21:17:26.348Z,12.44
2018-10-07T21:20:00.826Z,12.39
2018-10-07T21:22:35.473Z,12.33
2018-10-07T21:25:09.932Z,12.26
2018-10-07T21:27:44.643Z,12.25
2018-10-07T21:30:19.466Z,12.23
2018-10-07T21:32:54.327Z,12.36
2018-10-07T21:35:28.728Z,12.35
2018-10-07T21:38:03.447Z,12.23
2018-10-07T21:40:37.920Z,12.14
2018-10-07T21:43:12.272Z,12.05
2018-10-07T21:45:46.825Z,11.95
2018-10-07T21:48:21.155Z,11.98
2018-10-07T21:50:55.854Z,12.02
2018-10-07T21:53:30.449Z,12.00
2018-10-07T21:56:05.269Z,11.98
2018-10-07T21:58:40.380Z,11.98
2018-10-07T22:01:15.144Z,11.94
2018-10-07T22:03:49.623Z,11.92
2018-10-07T22:06:24.135Z,12.04
2018-10-07T22:08:59.184Z,12.00
2018-10-07T22:11:33.966Z,12.13
2018-10-07T22:14:09.126Z,12.09
2018-10-07T22:16:43.543Z,12.07
2018-10-07T22:19:18.540Z,11.92
2018-10-07T22:21:53.324Z,11.88
2018-10-07T22:24:27.815Z,11.82
2018-10-07T22:27:02.572Z,11.75
2018-10-07T22:29:37.751Z,11.72
2018-10-07T22:32:12.155Z,11.71
2018-10-07T22:34:46.573Z,11.64
2018-10-07T22:37:21.503Z,11.54
2018-10-07T22:39:55.912Z,11.57
2018-10-07T22:42:30.502Z,11.51
2018-10-07T22:45:05.173Z,11.37
2018-10-07T22:47:39.628Z,11.29
2018-10-07T22:50:14.207Z,11.27
2018-10-07T22:52:48.703Z,11.35
2018-10-07T22:55:23.240Z,11.38
2018-10-07T22:57:57.767Z,11.46
2018-10-07T23:00:33.274Z,11.41
2018-10-07T23:03:08.051Z,11.44
2018-10-07T23:05:42.701Z,11.44
2018-10-07T23:08:17.162Z,11.45
2018-10-07T23:10:51.988Z,11.37
2018-10-07T23:13:26.652Z,11.33
2018-10-07T23:16:01.624Z,11.30
2018-10-07T23:18:36.232Z,11.27
2018-10-07T23:21:10.776Z,11.32
2018-10-07T23:23:45.373Z,11.33
2018-10-07T23:26:20.140Z,11.52
2018-10-07T23:28:54.926Z,11.65
2018-10-07T23:31:29.373Z,11.72
2018-10-07T23:34:04.743Z,11.79
2018-10-07T23:36:39.021Z,11.86
2018-10-07T23:39:13.464Z,11.90
2018-10-07T23:41:47.960Z,11.97
2018-10-07T23:44:22.480Z,11.99
2018-10-07T23:46:56.871Z,12.04
2018-10-07T23:49:31.544Z,12.06
2018-10-07T23:52:06.096Z,12.08
2018-10-07T23:54:41.244Z,12.22
2018-10-07T23:57:16.564Z,12.20
2018-10-07T23:59:51.503Z,12.12
